Lipscomb, TX (79056)

10:32 PM CDT on September 20, 2014 (GMT -0500)
Zender Laundromat | Change Station
CLOSE
Current Station
Personal Weather Station
Location: Booker, TX
Elevation: 2844 ft
Nearby Weather Stations

Elev 2844 ft 36.45 °N, 100.54 °W | Updated 5 seconds ago

Clear
Clear
72.9 °F
Feels Like 72 °F
N
2.2
Wind Variable Wind from SSE
Gusts 6.0 mph

Today
High -- | Low -- °F
--% Chance of Precip.
Yesterday
High -- | Low -- °F
Precip. -- in
7:27 AM 7:40 PM
Waning Crescent, 9% visible
Pressure 30.05 in
Visibility 10.0 miles
Clouds Clear
Heat Index 72 °F
Dew Point 68 °F
Humidity 84%
Rainfall 0.00 in
Snow Depth Not available.
UV 0 out of 12
Pollen 5.60 out of 12
Air Quality Not available.
Flu Activity Not available.
METAR KHHF 210255Z AUTO 18009KT 10SM CLR 25/20 A3005 RMK AO2 T02520200

More Conditions Fewer Conditions

Pressure 30.05 in
Visibility 10.0 miles
Clouds Clear
Heat Index 72 °F
Dew Point 68 °F
Humidity 84%
Rainfall 0.00 in
Snow Depth Not available.
UV 0 out of 12
Pollen 5.60 out of 12
Air Quality Not available.
Flu Activity Not available.
METAR KHHF 210255Z AUTO 18009KT 10SM CLR 25/20 A3005 RMK AO2 T02520200

More Conditions Fewer Conditions

10-Day Weather Forecast

Almanac

Astronomy

Sep. 20, 2014 Rise Set
Actual Time 7:27 AM CDT 7:40 PM CDT
Civil Twilight 7:01 AM CDT 8:06 PM CDT
Nautical Twilight 6:31 AM CDT 8:36 PM CDT
Astronomical Twilight 6:01 AM CDT 9:07 PM CDT
Moon 4:13 AM CDT (9/20) 5:41 PM CDT (9/20)
Length of Visible Light 13h 04m
Length of Day
12h 13m
Tomorrow will be 2m 17s shorter.
Waning Crescent, 9% of the Moon is Illuminated
Today
Waning Crescent
Sep 24
New
Oct 1
First Quarter
Oct 8
Full
Oct 15
Last Quarter

Today's Extremes

State Highs State Lows

Community

WunderPhotos

Upload Photos

1,755,073 photos uploaded!

Nearby

Snow Depth

Station Depth Elevation
No new snow has been reported.

Earthquake Activity

City Distance Mag. Time & Date
Helena, Oklahoma 100 miles 2.8 4:01 PM CDT
2014-09-17
Minimum magnitude displayed is 2.5.

Coastal Water Temperatures

Place Temperature
No Stations Reporting

Nearby Weather Stations